sensor_id;sensor_type;location;lat;lon;timestamp;P1;durP1;ratioP1;P2;durP2;ratioP2
14933;SDS011;7560;51.364;12.384;2023-10-13T00:04:13;15.23;;;9.27;;
14933;SDS011;7560;51.364;12.384;2023-10-13T00:09:15;15.07;;;9.77;;
14933;SDS011;7560;51.364;12.384;2023-10-13T00:14:17;14.38;;;9.25;;
14933;SDS011;7560;51.364;12.384;2023-10-13T00:19:18;12.90;;;9.23;;
14933;SDS011;7560;51.364;12.384;2023-10-13T00:24:21;16.52;;;9.02;;
14933;SDS011;7560;51.364;12.384;2023-10-13T00:29:30;14.30;;;9.35;;
14933;SDS011;7560;51.364;12.384;2023-10-13T00:34:38;13.27;;;9.30;;
14933;SDS011;7560;51.364;12.384;2023-10-13T00:39:40;14.52;;;9.20;;
14933;SDS011;7560;51.364;12.384;2023-10-13T00:44:46;13.68;;;9.20;;
14933;SDS011;7560;51.364;12.384;2023-10-13T00:49:55;13.13;;;8.20;;
14933;SDS011;7560;51.364;12.384;2023-10-13T00:54:57;10.73;;;8.38;;
14933;SDS011;7560;51.364;12.384;2023-10-13T01:00:01;13.98;;;9.82;;
14933;SDS011;7560;51.364;12.384;2023-10-13T01:05:14;15.20;;;8.90;;
14933;SDS011;7560;51.364;12.384;2023-10-13T01:10:21;11.23;;;8.27;;
14933;SDS011;7560;51.364;12.384;2023-10-13T01:15:27;13.52;;;8.65;;
14933;SDS011;7560;51.364;12.384;2023-10-13T01:20:31;13.07;;;8.35;;
14933;SDS011;7560;51.364;12.384;2023-10-13T01:25:34;12.02;;;8.40;;
14933;SDS011;7560;51.364;12.384;2023-10-13T01:30:36;11.30;;;7.65;;
14933;SDS011;7560;51.364;12.384;2023-10-13T01:35:41;10.77;;;7.35;;
14933;SDS011;7560;51.364;12.384;2023-10-13T01:40:48;10.20;;;7.28;;
14933;SDS011;7560;51.364;12.384;2023-10-13T01:45:53;11.75;;;6.63;;
14933;SDS011;7560;51.364;12.384;2023-10-13T01:50:56;9.32;;;6.53;;
14933;SDS011;7560;51.364;12.384;2023-10-13T01:56:01;10.55;;;6.55;;
14933;SDS011;7560;51.364;12.384;2023-10-13T02:01:07;8.85;;;6.30;;
14933;SDS011;7560;51.364;12.384;2023-10-13T02:06:10;8.75;;;6.13;;
14933;SDS011;7560;51.364;12.384;2023-10-13T02:11:18;10.00;;;5.97;;
14933;SDS011;7560;51.364;12.384;2023-10-13T02:16:20;10.95;;;5.80;;
14933;SDS011;7560;51.364;12.384;2023-10-13T02:21:23;9.30;;;5.93;;
14933;SDS011;7560;51.364;12.384;2023-10-13T02:26:33;7.78;;;5.65;;
14933;SDS011;7560;51.364;12.384;2023-10-13T02:31:42;7.68;;;5.90;;
14933;SDS011;7560;51.364;12.384;2023-10-13T02:36:44;10.13;;;6.07;;
14933;SDS011;7560;51.364;12.384;2023-10-13T02:41:50;8.45;;;6.20;;
14933;SDS011;7560;51.364;12.384;2023-10-13T02:46:52;9.32;;;6.05;;
14933;SDS011;7560;51.364;12.384;2023-10-13T02:51:57;10.88;;;6.15;;
14933;SDS011;7560;51.364;12.384;2023-10-13T02:57:01;8.52;;;5.88;;
14933;SDS011;7560;51.364;12.384;2023-10-13T03:02:05;8.52;;;6.40;;
14933;SDS011;7560;51.364;12.384;2023-10-13T03:07:40;8.55;;;6.13;;
14933;SDS011;7560;51.364;12.384;2023-10-13T03:12:45;8.98;;;5.93;;
14933;SDS011;7560;51.364;12.384;2023-10-13T03:17:50;9.98;;;6.45;;
14933;SDS011;7560;51.364;12.384;2023-10-13T03:22:52;9.48;;;6.90;;
14933;SDS011;7560;51.364;12.384;2023-10-13T03:27:54;8.30;;;6.22;;
14933;SDS011;7560;51.364;12.384;2023-10-13T03:33:04;12.30;;;7.75;;
14933;SDS011;7560;51.364;12.384;2023-10-13T03:38:09;12.13;;;7.60;;
14933;SDS011;7560;51.364;12.384;2023-10-13T03:43:20;11.90;;;8.27;;
14933;SDS011;7560;51.364;12.384;2023-10-13T03:48:25;16.35;;;8.43;;
14933;SDS011;7560;51.364;12.384;2023-10-13T03:53:28;16.73;;;8.85;;
14933;SDS011;7560;51.364;12.384;2023-10-13T03:58:35;13.80;;;9.32;;
14933;SDS011;7560;51.364;12.384;2023-10-13T04:03:38;11.73;;;8.75;;
14933;SDS011;7560;51.364;12.384;2023-10-13T04:08:40;11.65;;;9.10;;
14933;SDS011;7560;51.364;12.384;2023-10-13T04:13:44;16.02;;;8.43;;
14933;SDS011;7560;51.364;12.384;2023-10-13T04:19:05;14.13;;;8.50;;
14933;SDS011;7560;51.364;12.384;2023-10-13T04:24:11;13.13;;;8.38;;
14933;SDS011;7560;51.364;12.384;2023-10-13T04:29:19;12.70;;;7.85;;
14933;SDS011;7560;51.364;12.384;2023-10-13T04:34:44;11.63;;;8.02;;
14933;SDS011;7560;51.364;12.384;2023-10-13T04:39:52;10.80;;;7.63;;
14933;SDS011;7560;51.364;12.384;2023-10-13T04:44:59;13.75;;;8.20;;
14933;SDS011;7560;51.364;12.384;2023-10-13T04:50:17;13.60;;;7.55;;
14933;SDS011;7560;51.364;12.384;2023-10-13T04:55:28;12.10;;;8.13;;
14933;SDS011;7560;51.364;12.384;2023-10-13T05:00:48;10.75;;;7.72;;
14933;SDS011;7560;51.364;12.384;2023-10-13T05:06:19;11.35;;;7.57;;
14933;SDS011;7560;51.364;12.384;2023-10-13T05:11:40;10.88;;;7.68;;
14933;SDS011;7560;51.364;12.384;2023-10-13T05:17:00;10.48;;;7.03;;
14933;SDS011;7560;51.364;12.384;2023-10-13T05:22:21;10.25;;;6.63;;
14933;SDS011;7560;51.364;12.384;2023-10-13T05:27:41;8.73;;;6.80;;
14933;SDS011;7560;51.364;12.384;2023-10-13T05:33:03;11.13;;;7.47;;
14933;SDS011;7560;51.364;12.384;2023-10-13T05:38:24;12.10;;;7.25;;
14933;SDS011;7560;51.364;12.384;2023-10-13T05:43:44;10.80;;;7.43;;
14933;SDS011;7560;51.364;12.384;2023-10-13T05:49:08;13.00;;;7.63;;
14933;SDS011;7560;51.364;12.384;2023-10-13T05:54:13;12.23;;;7.68;;
14933;SDS011;7560;51.364;12.384;2023-10-13T05:59:16;10.93;;;7.65;;
14933;SDS011;7560;51.364;12.384;2023-10-13T06:04:36;11.38;;;8.23;;
14933;SDS011;7560;51.364;12.384;2023-10-13T06:09:56;18.27;;;9.10;;
14933;SDS011;7560;51.364;12.384;2023-10-13T06:15:16;17.80;;;8.75;;
14933;SDS011;7560;51.364;12.384;2023-10-13T06:20:40;23.30;;;9.43;;
14933;SDS011;7560;51.364;12.384;2023-10-13T06:26:00;23.33;;;9.27;;
14933;SDS011;7560;51.364;12.384;2023-10-13T06:31:20;15.13;;;8.63;;
14933;SDS011;7560;51.364;12.384;2023-10-13T06:36:27;12.85;;;8.65;;
14933;SDS011;7560;51.364;12.384;2023-10-13T06:41:29;28.65;;;10.02;;
14933;SDS011;7560;51.364;12.384;2023-10-13T06:46:33;23.42;;;9.60;;
14933;SDS011;7560;51.364;12.384;2023-10-13T06:51:36;15.13;;;8.25;;
14933;SDS011;7560;51.364;12.384;2023-10-13T06:56:41;65.32;;;12.32;;
14933;SDS011;7560;51.364;12.384;2023-10-13T07:01:42;12.52;;;7.53;;
14933;SDS011;7560;51.364;12.384;2023-10-13T07:06:46;22.27;;;8.30;;
14933;SDS011;7560;51.364;12.384;2023-10-13T07:11:51;14.43;;;7.78;;
14933;SDS011;7560;51.364;12.384;2023-10-13T07:16:57;31.58;;;8.98;;
14933;SDS011;7560;51.364;12.384;2023-10-13T07:22:02;20.13;;;7.68;;
14933;SDS011;7560;51.364;12.384;2023-10-13T07:27:21;14.32;;;7.35;;
14933;SDS011;7560;51.364;12.384;2023-10-13T07:32:26;22.13;;;6.75;;
14933;SDS011;7560;51.364;12.384;2023-10-13T07:37:29;16.92;;;6.20;;
14933;SDS011;7560;51.364;12.384;2023-10-13T07:42:31;19.38;;;7.60;;
14933;SDS011;7560;51.364;12.384;2023-10-13T07:47:40;37.80;;;8.52;;
14933;SDS011;7560;51.364;12.384;2023-10-13T07:52:42;13.20;;;5.95;;
14933;SDS011;7560;51.364;12.384;2023-10-13T07:58:00;10.10;;;5.63;;
14933;SDS011;7560;51.364;12.384;2023-10-13T08:03:08;41.88;;;9.90;;
14933;SDS011;7560;51.364;12.384;2023-10-13T08:08:16;40.00;;;8.60;;
14933;SDS011;7560;51.364;12.384;2023-10-13T08:13:18;12.32;;;6.00;;
14933;SDS011;7560;51.364;12.384;2023-10-13T08:18:22;15.43;;;6.28;;
14933;SDS011;7560;51.364;12.384;2023-10-13T08:23:34;11.25;;;5.90;;
14933;SDS011;7560;51.364;12.384;2023-10-13T08:28:55;12.00;;;6.05;;
14933;SDS011;7560;51.364;12.384;2023-10-13T08:33:58;8.38;;;5.07;;
14933;SDS011;7560;51.364;12.384;2023-10-13T08:39:08;7.90;;;5.43;;
14933;SDS011;7560;51.364;12.384;2023-10-13T08:44:32;10.07;;;5.93;;
14933;SDS011;7560;51.364;12.384;2023-10-13T08:49:46;10.32;;;6.68;;
14933;SDS011;7560;51.364;12.384;2023-10-13T08:54:52;8.38;;;5.88;;
14933;SDS011;7560;51.364;12.384;2023-10-13T09:00:06;11.68;;;6.05;;
14933;SDS011;7560;51.364;12.384;2023-10-13T09:05:34;29.10;;;8.45;;
14933;SDS011;7560;51.364;12.384;2023-10-13T09:10:57;10.77;;;5.63;;
14933;SDS011;7560;51.364;12.384;2023-10-13T09:16:12;8.35;;;5.97;;
14933;SDS011;7560;51.364;12.384;2023-10-13T09:21:38;12.20;;;6.43;;
14933;SDS011;7560;51.364;12.384;2023-10-13T09:26:43;10.50;;;6.10;;
14933;SDS011;7560;51.364;12.384;2023-10-13T09:32:00;36.17;;;8.77;;
14933;SDS011;7560;51.364;12.384;2023-10-13T09:37:05;14.02;;;7.40;;
14933;SDS011;7560;51.364;12.384;2023-10-13T09:42:07;11.65;;;5.57;;
14933;SDS011;7560;51.364;12.384;2023-10-13T09:47:13;12.95;;;5.93;;
14933;SDS011;7560;51.364;12.384;2023-10-13T09:52:19;16.63;;;6.60;;
14933;SDS011;7560;51.364;12.384;2023-10-13T09:57:21;16.58;;;6.32;;
14933;SDS011;7560;51.364;12.384;2023-10-13T10:02:25;14.45;;;6.53;;
14933;SDS011;7560;51.364;12.384;2023-10-13T10:07:28;14.30;;;7.45;;
14933;SDS011;7560;51.364;12.384;2023-10-13T10:12:49;13.95;;;6.22;;
14933;SDS011;7560;51.364;12.384;2023-10-13T10:17:58;14.40;;;6.80;;
14933;SDS011;7560;51.364;12.384;2023-10-13T10:23:01;15.40;;;6.85;;
14933;SDS011;7560;51.364;12.384;2023-10-13T10:28:06;13.35;;;6.88;;
14933;SDS011;7560;51.364;12.384;2023-10-13T10:33:09;14.10;;;6.03;;
14933;SDS011;7560;51.364;12.384;2023-10-13T10:38:17;8.52;;;5.07;;
14933;SDS011;7560;51.364;12.384;2023-10-13T10:43:29;10.88;;;5.28;;
14933;SDS011;7560;51.364;12.384;2023-10-13T10:48:49;12.32;;;5.35;;
14933;SDS011;7560;51.364;12.384;2023-10-13T10:53:58;39.75;;;8.18;;
14933;SDS011;7560;51.364;12.384;2023-10-13T10:59:12;13.13;;;5.85;;
14933;SDS011;7560;51.364;12.384;2023-10-13T11:04:21;33.95;;;7.03;;
14933;SDS011;7560;51.364;12.384;2023-10-13T11:14:33;12.60;;;5.95;;
14933;SDS011;7560;51.364;12.384;2023-10-13T11:24:42;13.68;;;4.72;;
14933;SDS011;7560;51.364;12.384;2023-10-13T11:29:44;10.18;;;4.78;;
14933;SDS011;7560;51.364;12.384;2023-10-13T11:34:53;27.70;;;7.70;;
14933;SDS011;7560;51.364;12.384;2023-10-13T11:39:56;15.75;;;5.05;;
14933;SDS011;7560;51.364;12.384;2023-10-13T11:44:58;15.07;;;5.20;;
14933;SDS011;7560;51.364;12.384;2023-10-13T11:50:19;11.18;;;4.57;;
14933;SDS011;7560;51.364;12.384;2023-10-13T11:55:33;9.70;;;4.55;;
14933;SDS011;7560;51.364;12.384;2023-10-13T12:00:36;13.93;;;4.57;;
14933;SDS011;7560;51.364;12.384;2023-10-13T12:06:08;9.82;;;4.53;;
14933;SDS011;7560;51.364;12.384;2023-10-13T12:11:29;8.88;;;4.72;;
14933;SDS011;7560;51.364;12.384;2023-10-13T12:16:34;14.88;;;5.50;;
14933;SDS011;7560;51.364;12.384;2023-10-13T12:21:36;9.98;;;4.65;;
14933;SDS011;7560;51.364;12.384;2023-10-13T12:26:39;12.20;;;5.18;;
14933;SDS011;7560;51.364;12.384;2023-10-13T12:31:43;16.15;;;4.55;;
14933;SDS011;7560;51.364;12.384;2023-10-13T12:36:52;13.15;;;4.85;;
14933;SDS011;7560;51.364;12.384;2023-10-13T12:42:06;16.23;;;5.18;;
14933;SDS011;7560;51.364;12.384;2023-10-13T12:47:26;15.38;;;5.38;;
14933;SDS011;7560;51.364;12.384;2023-10-13T12:52:47;20.75;;;6.00;;
14933;SDS011;7560;51.364;12.384;2023-10-13T12:57:49;17.08;;;5.70;;
14933;SDS011;7560;51.364;12.384;2023-10-13T13:02:50;9.93;;;4.50;;
14933;SDS011;7560;51.364;12.384;2023-10-13T13:07:57;10.73;;;4.63;;
14933;SDS011;7560;51.364;12.384;2023-10-13T13:12:59;13.07;;;4.70;;
14933;SDS011;7560;51.364;12.384;2023-10-13T13:18:01;14.45;;;5.90;;
14933;SDS011;7560;51.364;12.384;2023-10-13T13:23:12;9.43;;;5.20;;
14933;SDS011;7560;51.364;12.384;2023-10-13T13:28:16;12.65;;;4.95;;
14933;SDS011;7560;51.364;12.384;2023-10-13T13:33:18;9.05;;;4.80;;
14933;SDS011;7560;51.364;12.384;2023-10-13T13:38:25;14.00;;;5.30;;
14933;SDS011;7560;51.364;12.384;2023-10-13T13:43:33;10.98;;;4.25;;
14933;SDS011;7560;51.364;12.384;2023-10-13T13:48:52;12.25;;;5.07;;
14933;SDS011;7560;51.364;12.384;2023-10-13T13:54:00;24.35;;;6.03;;
14933;SDS011;7560;51.364;12.384;2023-10-13T13:59:05;12.05;;;5.75;;
14933;SDS011;7560;51.364;12.384;2023-10-13T14:04:11;122.63;;;16.95;;
14933;SDS011;7560;51.364;12.384;2023-10-13T14:09:15;21.60;;;6.18;;
14933;SDS011;7560;51.364;12.384;2023-10-13T14:14:18;34.67;;;7.50;;
14933;SDS011;7560;51.364;12.384;2023-10-13T14:19:25;14.55;;;5.43;;
14933;SDS011;7560;51.364;12.384;2023-10-13T14:24:30;14.43;;;5.47;;
14933;SDS011;7560;51.364;12.384;2023-10-13T14:29:35;13.32;;;4.88;;
14933;SDS011;7560;51.364;12.384;2023-10-13T14:34:46;27.08;;;7.40;;
14933;SDS011;7560;51.364;12.384;2023-10-13T14:39:50;22.45;;;6.10;;
14933;SDS011;7560;51.364;12.384;2023-10-13T14:44:52;9.45;;;5.05;;
14933;SDS011;7560;51.364;12.384;2023-10-13T14:49:56;6.82;;;4.57;;
14933;SDS011;7560;51.364;12.384;2023-10-13T14:55:05;14.55;;;5.05;;
14933;SDS011;7560;51.364;12.384;2023-10-13T15:00:09;10.80;;;5.50;;
14933;SDS011;7560;51.364;12.384;2023-10-13T15:05:18;7.03;;;4.20;;
14933;SDS011;7560;51.364;12.384;2023-10-13T15:10:20;10.45;;;4.85;;
14933;SDS011;7560;51.364;12.384;2023-10-13T15:15:21;10.63;;;4.22;;
14933;SDS011;7560;51.364;12.384;2023-10-13T15:20:24;9.95;;;4.95;;
14933;SDS011;7560;51.364;12.384;2023-10-13T15:25:26;10.65;;;5.13;;
14933;SDS011;7560;51.364;12.384;2023-10-13T15:30:33;9.63;;;5.10;;
14933;SDS011;7560;51.364;12.384;2023-10-13T15:35:56;12.27;;;5.18;;
14933;SDS011;7560;51.364;12.384;2023-10-13T15:40:58;9.63;;;5.10;;
14933;SDS011;7560;51.364;12.384;2023-10-13T15:46:00;8.68;;;4.57;;
14933;SDS011;7560;51.364;12.384;2023-10-13T15:51:28;13.85;;;4.80;;
14933;SDS011;7560;51.364;12.384;2023-10-13T15:56:30;7.03;;;4.55;;
14933;SDS011;7560;51.364;12.384;2023-10-13T16:01:34;11.43;;;5.00;;
14933;SDS011;7560;51.364;12.384;2023-10-13T16:06:36;6.03;;;4.13;;
14933;SDS011;7560;51.364;12.384;2023-10-13T16:11:40;9.77;;;4.82;;
14933;SDS011;7560;51.364;12.384;2023-10-13T16:16:47;9.82;;;4.95;;
14933;SDS011;7560;51.364;12.384;2023-10-13T16:21:51;9.20;;;4.72;;
14933;SDS011;7560;51.364;12.384;2023-10-13T16:26:54;6.88;;;4.43;;
14933;SDS011;7560;51.364;12.384;2023-10-13T16:32:00;7.85;;;4.20;;
14933;SDS011;7560;51.364;12.384;2023-10-13T16:37:01;5.53;;;4.05;;
14933;SDS011;7560;51.364;12.384;2023-10-13T16:42:06;10.15;;;4.70;;
14933;SDS011;7560;51.364;12.384;2023-10-13T16:47:09;14.52;;;4.90;;
14933;SDS011;7560;51.364;12.384;2023-10-13T16:52:15;7.15;;;4.30;;
14933;SDS011;7560;51.364;12.384;2023-10-13T16:57:17;13.30;;;4.28;;
14933;SDS011;7560;51.364;12.384;2023-10-13T17:02:22;7.30;;;4.25;;
14933;SDS011;7560;51.364;12.384;2023-10-13T17:08:13;9.73;;;4.15;;
14933;SDS011;7560;51.364;12.384;2023-10-13T17:13:16;8.52;;;4.00;;
14933;SDS011;7560;51.364;12.384;2023-10-13T17:18:18;9.05;;;4.53;;
14933;SDS011;7560;51.364;12.384;2023-10-13T17:23:19;7.95;;;4.18;;
14933;SDS011;7560;51.364;12.384;2023-10-13T17:28:22;8.77;;;4.43;;
14933;SDS011;7560;51.364;12.384;2023-10-13T17:33:24;9.10;;;4.20;;
14933;SDS011;7560;51.364;12.384;2023-10-13T17:38:25;10.55;;;4.18;;
14933;SDS011;7560;51.364;12.384;2023-10-13T17:43:27;10.85;;;4.40;;
14933;SDS011;7560;51.364;12.384;2023-10-13T17:48:29;8.38;;;4.00;;
14933;SDS011;7560;51.364;12.384;2023-10-13T17:53:32;7.72;;;4.10;;
14933;SDS011;7560;51.364;12.384;2023-10-13T17:58:39;10.55;;;4.50;;
14933;SDS011;7560;51.364;12.384;2023-10-13T18:03:48;8.32;;;4.53;;
14933;SDS011;7560;51.364;12.384;2023-10-13T18:08:52;11.82;;;4.63;;
14933;SDS011;7560;51.364;12.384;2023-10-13T18:13:59;9.45;;;4.28;;
14933;SDS011;7560;51.364;12.384;2023-10-13T18:19:01;10.65;;;4.75;;
14933;SDS011;7560;51.364;12.384;2023-10-13T18:24:08;7.82;;;4.57;;
14933;SDS011;7560;51.364;12.384;2023-10-13T18:29:12;11.18;;;4.78;;
14933;SDS011;7560;51.364;12.384;2023-10-13T18:34:14;10.98;;;5.63;;
14933;SDS011;7560;51.364;12.384;2023-10-13T18:39:16;12.10;;;4.70;;
14933;SDS011;7560;51.364;12.384;2023-10-13T18:44:21;5.65;;;3.95;;
14933;SDS011;7560;51.364;12.384;2023-10-13T18:49:24;6.00;;;4.05;;
14933;SDS011;7560;51.364;12.384;2023-10-13T18:54:26;10.10;;;4.95;;
14933;SDS011;7560;51.364;12.384;2023-10-13T18:59:28;9.95;;;5.03;;
14933;SDS011;7560;51.364;12.384;2023-10-13T19:04:30;8.93;;;4.85;;
14933;SDS011;7560;51.364;12.384;2023-10-13T19:09:33;9.25;;;4.68;;
14933;SDS011;7560;51.364;12.384;2023-10-13T19:14:38;9.98;;;4.38;;
14933;SDS011;7560;51.364;12.384;2023-10-13T19:19:40;8.57;;;4.53;;
14933;SDS011;7560;51.364;12.384;2023-10-13T19:24:41;8.90;;;4.47;;
14933;SDS011;7560;51.364;12.384;2023-10-13T19:29:44;8.10;;;4.70;;
14933;SDS011;7560;51.364;12.384;2023-10-13T19:34:45;6.97;;;4.40;;
14933;SDS011;7560;51.364;12.384;2023-10-13T19:39:47;9.95;;;4.60;;
14933;SDS011;7560;51.364;12.384;2023-10-13T19:44:49;9.18;;;4.90;;
14933;SDS011;7560;51.364;12.384;2023-10-13T19:49:51;9.57;;;4.47;;
14933;SDS011;7560;51.364;12.384;2023-10-13T19:54:52;8.60;;;4.65;;
14933;SDS011;7560;51.364;12.384;2023-10-13T19:59:57;9.07;;;4.47;;
14933;SDS011;7560;51.364;12.384;2023-10-13T20:04:58;9.02;;;4.35;;
14933;SDS011;7560;51.364;12.384;2023-10-13T20:10:06;13.10;;;4.70;;
14933;SDS011;7560;51.364;12.384;2023-10-13T20:15:10;8.65;;;4.95;;
14933;SDS011;7560;51.364;12.384;2023-10-13T20:20:12;7.18;;;4.03;;
14933;SDS011;7560;51.364;12.384;2023-10-13T20:25:17;10.25;;;4.55;;
14933;SDS011;7560;51.364;12.384;2023-10-13T20:30:20;7.53;;;4.22;;
14933;SDS011;7560;51.364;12.384;2023-10-13T20:35:22;9.73;;;4.40;;
14933;SDS011;7560;51.364;12.384;2023-10-13T20:40:24;9.48;;;4.45;;
14933;SDS011;7560;51.364;12.384;2023-10-13T20:45:26;9.30;;;4.28;;
14933;SDS011;7560;51.364;12.384;2023-10-13T20:50:28;9.55;;;3.90;;
14933;SDS011;7560;51.364;12.384;2023-10-13T20:55:30;7.70;;;4.03;;
14933;SDS011;7560;51.364;12.384;2023-10-13T21:00:31;9.15;;;4.05;;
14933;SDS011;7560;51.364;12.384;2023-10-13T21:05:36;6.90;;;4.07;;
14933;SDS011;7560;51.364;12.384;2023-10-13T21:10:38;8.23;;;3.50;;
14933;SDS011;7560;51.364;12.384;2023-10-13T21:15:40;8.07;;;3.60;;
14933;SDS011;7560;51.364;12.384;2023-10-13T21:20:42;9.15;;;3.90;;
14933;SDS011;7560;51.364;12.384;2023-10-13T21:25:44;9.98;;;3.15;;
14933;SDS011;7560;51.364;12.384;2023-10-13T21:30:45;11.10;;;3.58;;
14933;SDS011;7560;51.364;12.384;2023-10-13T21:35:47;8.38;;;3.35;;
14933;SDS011;7560;51.364;12.384;2023-10-13T21:40:50;6.35;;;3.05;;
14933;SDS011;7560;51.364;12.384;2023-10-13T21:45:53;8.07;;;3.22;;
14933;SDS011;7560;51.364;12.384;2023-10-13T21:50:55;9.48;;;3.22;;
14933;SDS011;7560;51.364;12.384;2023-10-13T21:55:57;8.52;;;3.20;;
14933;SDS011;7560;51.364;12.384;2023-10-13T22:01:00;5.10;;;3.10;;
14933;SDS011;7560;51.364;12.384;2023-10-13T22:06:22;11.95;;;3.45;;
14933;SDS011;7560;51.364;12.384;2023-10-13T22:11:25;9.07;;;3.50;;
14933;SDS011;7560;51.364;12.384;2023-10-13T22:16:26;8.68;;;3.22;;
14933;SDS011;7560;51.364;12.384;2023-10-13T22:21:28;8.30;;;2.75;;
14933;SDS011;7560;51.364;12.384;2023-10-13T22:26:30;6.20;;;3.10;;
14933;SDS011;7560;51.364;12.384;2023-10-13T22:31:32;5.75;;;2.75;;
14933;SDS011;7560;51.364;12.384;2023-10-13T22:36:34;6.05;;;3.10;;
14933;SDS011;7560;51.364;12.384;2023-10-13T22:41:36;9.32;;;3.50;;
14933;SDS011;7560;51.364;12.384;2023-10-13T22:46:37;13.32;;;3.17;;
14933;SDS011;7560;51.364;12.384;2023-10-13T22:51:39;9.23;;;3.00;;
14933;SDS011;7560;51.364;12.384;2023-10-13T22:56:42;6.97;;;3.10;;
14933;SDS011;7560;51.364;12.384;2023-10-13T23:01:43;4.40;;;2.95;;
14933;SDS011;7560;51.364;12.384;2023-10-13T23:06:45;7.20;;;2.60;;
14933;SDS011;7560;51.364;12.384;2023-10-13T23:11:47;6.32;;;2.90;;
14933;SDS011;7560;51.364;12.384;2023-10-13T23:16:50;5.38;;;2.70;;
14933;SDS011;7560;51.364;12.384;2023-10-13T23:21:52;4.72;;;2.67;;
14933;SDS011;7560;51.364;12.384;2023-10-13T23:26:55;6.15;;;2.78;;
14933;SDS011;7560;51.364;12.384;2023-10-13T23:31:57;10.05;;;2.97;;
14933;SDS011;7560;51.364;12.384;2023-10-13T23:36:59;6.55;;;2.90;;
14933;SDS011;7560;51.364;12.384;2023-10-13T23:42:03;5.78;;;3.10;;
14933;SDS011;7560;51.364;12.384;2023-10-13T23:47:08;5.05;;;2.75;;
14933;SDS011;7560;51.364;12.384;2023-10-13T23:52:11;7.07;;;3.05;;
14933;SDS011;7560;51.364;12.384;2023-10-13T23:57:13;14.13;;;3.30;;
